Terminal Aerodrome Forecast
Issued by NWS

Home | Current Version | Previous Version | Text Only | Print | Product List | Glossary On
Versions: 1 2 3 4 5 6 7 8 9 10 11 12 13 14 15 16 17 18
000
FTPA31 PHFO 170919 AAA
TAFHTO
TAF AMD
PHTO 170919Z 1709/1806 VRB06KT P6SM VCSH SCT025 BKN045
      TEMPO 1709/1713 4SM SHRA BR BKN025 OVC045
     FM172000 07008KT P6SM SCT025 BKN045
     FM180400 VRB04KT P6SM SCT025 SCT045=

USA.gov is the U.S. government's official web portal to all federal, state and local government web resources and services.